Terminal Aerodrome Forecast
Issued by NWS

Home | Current Version | Previous Version | Text Only | Print | Product List | Glossary On
Versions: 1 2 3 4 5 6 7 8 9 10 11 12 13 14 15 16 17 18 19 20 21 22 23 24 25 26 27
000
FTUS46 KSEW 271921 AAA
TAFSEA
TAF AMD
KSEA 271921Z 2719/2824 22008KT P6SM OVC022
     FM272100 25007KT P6SM SCT035 BKN250
     FM280200 31005KT P6SM SCT250
     FM281100 20004KT P6SM OVC012
     FM281900 24007KT P6SM BKN250=

USA.gov is the U.S. government's official web portal to all federal, state and local government web resources and services.